PDT,Max TemperatureF,Mean TemperatureF,Min TemperatureF,Max Dew PointF,MeanDew PointF,Min DewpointF,Max Humidity, Mean Humidity, Min Humidity, Max Sea Level PressureIn, Mean Sea Level PressureIn, Min Sea Level PressureIn, Max VisibilityMiles, Mean VisibilityMiles, Min VisibilityMiles, Max Wind SpeedMPH, Mean Wind SpeedMPH, Max Gust SpeedMPH,PrecipitationIn, CloudCover, Events, WindDirDegrees
2013-3-1,76,53,29,23,16,12,53,32,10,30.48,30.38,30.28,10,10,10,20,6,26,0.00,0,,23
2013-3-2,77,58,39,23,19,14,34,23,11,30.33,30.22,30.12,10,10,10,14,7,18,0.00,0,,260
2013-3-3,71,60,49,38,29,19,51,33,15,30.13,30.00,29.94,,,,28,15,44,0.00,5,,256
2013-3-4,72,60,47,43,35,24,71,45,18,30.07,30.03,29.97,,,,26,9,30,0.00,0,,274
2013-3-5,70,53,36,41,37,28,82,53,23,30.09,30.03,29.94,10,9,9,28,11,36,0.00,1,,267
2013-3-6,57,50,43,40,37,34,76,62,47,30.08,30.03,29.98,,,,29,18,36,0.00,2,,233
2013-3-7,55,49,42,38,34,28,71,56,41,29.98,29.93,29.83,10,10,10,22,12,26,T,4,,250
2013-3-8,50,44,37,36,34,32,85,71,56,29.99,29.86,29.77,10,10,5,32,15,38,0.35,5,Rain,247
2013-3-9,59,46,33,34,31,27,76,55,33,30.27,30.13,30.01,10,10,9,29,16,49,0.00,1,,278
2013-3-10,68,47,26,31,22,12,81,47,12,30.38,30.30,30.24,10,10,10,16,4,20,0.00,0,,356
2013-3-11,75,52,29,30,21,9,72,40,8,30.29,30.19,30.09,10,10,10,12,3,13,0.00,0,,286
2013-3-12,80,57,34,27,23,16,64,37,9,30.21,30.14,30.07,10,10,10,12,4,20,0.00,0,,314
2013-3-13,85,60,34,28,25,20,64,37,9,30.25,30.17,30.10,10,10,10,13,4,18,0.00,0,,343
2013-3-14,88,64,40,33,28,25,55,33,10,30.21,30.12,30.04,10,10,10,17,4,21,0.00,0,,276
2013-3-15,88,70,52,45,36,16,71,41,11,30.05,29.98,29.91,10,10,7,31,13,36,0.00,0,,252
2013-3-16,80,69,57,45,36,28,55,36,16,29.97,29.93,29.88,10,10,5,36,22,43,0.00,0,,279
2013-3-17,78,66,53,38,30,20,46,29,12,30.03,29.96,29.90,10,10,10,36,22,44,0.00,0,,277
2013-3-18,78,63,47,35,23,5,53,31,8,30.04,29.99,29.94,10,10,10,31,13,38,0.00,0,,273
2013-3-19,79,66,52,32,29,25,41,28,15,30.09,30.04,29.99,10,10,10,28,17,33,0.00,0,,275
2013-3-20,75,65,55,39,36,27,51,34,17,30.06,30.02,29.96,10,10,10,31,20,37,0.00,0,,272
2013-3-21,74,63,51,43,38,28,71,45,19,29.95,29.89,29.81,10,10,8,41,21,52,0.00,0,,277
2013-3-22,72,59,46,36,29,23,54,36,17,29.97,29.89,29.79,10,9,5,39,21,47,0.00,1,,284
2013-3-23,72,56,40,27,12,3,38,23,7,30.08,30.00,29.94,10,10,10,30,12,36,0.00,0,,315
2013-3-24,76,58,39,25,13,0,35,21,7,30.08,29.99,29.91,10,10,10,23,7,26,0.00,0,,297
2013-3-25,79,57,35,39,26,19,48,30,12,29.98,29.94,29.88,10,10,10,21,7,25,0.00,0,,245
2013-3-26,79,63,47,42,30,20,50,31,12,29.93,29.90,29.85,10,10,10,24,13,29,0.00,0,,252
2013-3-27,74,63,52,44,39,34,66,46,25,30.00,29.92,29.87,10,10,10,24,17,31,0.00,0,,253
2013-3-28,78,64,49,42,37,30,71,46,20,30.07,30.02,29.98,10,10,10,30,9,31,0.00,0,,258
2013-3-29,80,62,43,40,35,31,70,44,17,30.11,30.07,30.02,10,10,10,22,7,31,0.00,0,,249
2013-3-30,79,66,52,39,32,21,43,28,12,30.08,30.04,29.98,10,10,10,26,13,33,0.00,0,,251
2013-3-31,66,58,49,46,43,29,77,56,35,30.08,30.05,30.01,10,10,10,24,16,31,0.00,4,,229